sensor_id;sensor_type;location;lat;lon;timestamp;pressure;altitude;pressure_sealevel;temperature
71897;BMP280;59767;51.344;12.362;2023-02-03T00:01:08;159619.19;;;3.89
71897;BMP280;59767;51.344;12.362;2023-02-03T00:04:12;159637.38;;;3.96
71897;BMP280;59767;51.344;12.362;2023-02-03T00:07:17;159636.09;;;3.96
71897;BMP280;59767;51.344;12.362;2023-02-03T00:10:21;159660.91;;;4.05
71897;BMP280;59767;51.344;12.362;2023-02-03T00:13:26;159707.81;;;4.23
71897;BMP280;59767;51.344;12.362;2023-02-03T00:16:30;159710.47;;;4.24
71897;BMP280;59767;51.344;12.362;2023-02-03T00:19:34;159694.75;;;4.18
71897;BMP280;59767;51.344;12.362;2023-02-03T00:22:38;159697.38;;;4.19
71897;BMP280;59767;51.344;12.362;2023-02-03T00:25:44;159716.97;;;4.27
71897;BMP280;59767;51.344;12.362;2023-02-03T00:28:48;159709.13;;;4.24
71897;BMP280;59767;51.344;12.362;2023-02-03T00:31:53;159690.84;;;4.17
71897;BMP280;59767;51.344;12.362;2023-02-03T00:34:57;159703.91;;;4.22
71897;BMP280;59767;51.344;12.362;2023-02-03T00:38:01;159710.47;;;4.24
71897;BMP280;59767;51.344;12.362;2023-02-03T00:41:05;159685.66;;;4.15
71897;BMP280;59767;51.344;12.362;2023-02-03T00:44:10;159714.38;;;4.26
71897;BMP280;59767;51.344;12.362;2023-02-03T00:47:14;159684.31;;;4.14
71897;BMP280;59767;51.344;12.362;2023-02-03T00:50:18;159730.03;;;4.32
71897;BMP280;59767;51.344;12.362;2023-02-03T00:53:23;159688.25;;;4.16
71897;BMP280;59767;51.344;12.362;2023-02-03T00:56:27;159685.66;;;4.15
71897;BMP280;59767;51.344;12.362;2023-02-03T00:59:31;159659.59;;;4.05
71897;BMP280;59767;51.344;12.362;2023-02-03T01:02:36;159649.13;;;4.01
71897;BMP280;59767;51.344;12.362;2023-02-03T01:05:40;159696.06;;;4.19
71897;BMP280;59767;51.344;12.362;2023-02-03T01:08:44;159663.50;;;4.06
71897;BMP280;59767;51.344;12.362;2023-02-03T01:11:49;159653.06;;;4.02
71897;BMP280;59767;51.344;12.362;2023-02-03T01:14:53;159636.09;;;3.96
71897;BMP280;59767;51.344;12.362;2023-02-03T01:17:57;159645.22;;;3.99
71897;BMP280;59767;51.344;12.362;2023-02-03T01:21:13;159666.09;;;4.07
71897;BMP280;59767;51.344;12.362;2023-02-03T01:24:17;159646.53;;;4.00
71897;BMP280;59767;51.344;12.362;2023-02-03T01:27:22;159647.84;;;4.00
71897;BMP280;59767;51.344;12.362;2023-02-03T01:30:26;159671.31;;;4.09
71897;BMP280;59767;51.344;12.362;2023-02-03T01:33:30;159650.44;;;4.01
71897;BMP280;59767;51.344;12.362;2023-02-03T01:36:34;159698.66;;;4.20
71897;BMP280;59767;51.344;12.362;2023-02-03T01:39:39;159680.41;;;4.13
71897;BMP280;59767;51.344;12.362;2023-02-03T01:42:43;159668.72;;;4.08
71897;BMP280;59767;51.344;12.362;2023-02-03T01:45:47;159683.00;;;4.14
71897;BMP280;59767;51.344;12.362;2023-02-03T01:48:54;159672.63;;;4.10
71897;BMP280;59767;51.344;12.362;2023-02-03T01:51:59;159671.31;;;4.09
71897;BMP280;59767;51.344;12.362;2023-02-03T01:55:06;159679.09;;;4.12
71897;BMP280;59767;51.344;12.362;2023-02-03T01:58:15;159686.91;;;4.15
71897;BMP280;59767;51.344;12.362;2023-02-03T02:01:22;159690.84;;;4.17
71897;BMP280;59767;51.344;12.362;2023-02-03T02:04:33;159690.84;;;4.17
71897;BMP280;59767;51.344;12.362;2023-02-03T02:07:39;159697.38;;;4.19
71897;BMP280;59767;51.344;12.362;2023-02-03T02:10:44;159706.53;;;4.23
71897;BMP280;59767;51.344;12.362;2023-02-03T02:13:50;159716.97;;;4.27
71897;BMP280;59767;51.344;12.362;2023-02-03T02:17:16;159711.72;;;4.25
71897;BMP280;59767;51.344;12.362;2023-02-03T02:20:45;159736.47;;;4.34
71897;BMP280;59767;51.344;12.362;2023-02-03T02:30:41;159777.00;;;4.50
71897;BMP280;59767;51.344;12.362;2023-02-03T02:34:21;159777.00;;;4.50
71897;BMP280;59767;51.344;12.362;2023-02-03T02:37:58;159786.03;;;4.53
71897;BMP280;59767;51.344;12.362;2023-02-03T02:41:11;159812.16;;;4.63
71897;BMP280;59767;51.344;12.362;2023-02-03T02:47:25;159856.50;;;4.80
71897;BMP280;59767;51.344;12.362;2023-02-03T02:50:33;159876.06;;;4.88
71897;BMP280;59767;51.344;12.362;2023-02-03T02:53:42;159878.66;;;4.89
71897;BMP280;59767;51.344;12.362;2023-02-03T02:56:52;159889.09;;;4.93
71897;BMP280;59767;51.344;12.362;2023-02-03T02:59:57;159916.50;;;5.03
71897;BMP280;59767;51.344;12.362;2023-02-03T03:03:16;159936.06;;;5.11
71897;BMP280;59767;51.344;12.362;2023-02-03T03:06:22;159956.97;;;5.19
71897;BMP280;59767;51.344;12.362;2023-02-03T03:09:38;159979.16;;;5.27
71897;BMP280;59767;51.344;12.362;2023-02-03T03:12:52;160005.19;;;5.37
71897;BMP280;59767;51.344;12.362;2023-02-03T03:15:58;160033.94;;;5.48
71897;BMP280;59767;51.344;12.362;2023-02-03T03:19:08;160060.03;;;5.58
71897;BMP280;59767;51.344;12.362;2023-02-03T03:22:15;160077.03;;;5.65
71897;BMP280;59767;51.344;12.362;2023-02-03T03:25:24;160091.38;;;5.70
71897;BMP280;59767;51.344;12.362;2023-02-03T03:28:40;160103.13;;;5.75
71897;BMP280;59767;51.344;12.362;2023-02-03T03:31:45;160116.19;;;5.80
71897;BMP280;59767;51.344;12.362;2023-02-03T03:34:51;160117.47;;;5.81
71897;BMP280;59767;51.344;12.362;2023-02-03T03:37:58;160133.09;;;5.87
71897;BMP280;59767;51.344;12.362;2023-02-03T03:41:14;160147.50;;;5.92
71897;BMP280;59767;51.344;12.362;2023-02-03T03:44:21;160164.44;;;5.99
71897;BMP280;59767;51.344;12.362;2023-02-03T03:50:49;160193.16;;;6.10
71897;BMP280;59767;51.344;12.362;2023-02-03T03:53:59;160207.50;;;6.15
71897;BMP280;59767;51.344;12.362;2023-02-03T03:57:10;160204.91;;;6.14
71897;BMP280;59767;51.344;12.362;2023-02-03T04:00:19;160207.50;;;6.15
71897;BMP280;59767;51.344;12.362;2023-02-03T04:03:30;160220.59;;;6.20
71897;BMP280;59767;51.344;12.362;2023-02-03T04:06:38;160223.22;;;6.21
71897;BMP280;59767;51.344;12.362;2023-02-03T04:09:43;160220.59;;;6.20
71897;BMP280;59767;51.344;12.362;2023-02-03T04:12:47;160211.47;;;6.17
71897;BMP280;59767;51.344;12.362;2023-02-03T04:15:51;160245.38;;;6.30
71897;BMP280;59767;51.344;12.362;2023-02-03T04:18:55;160237.53;;;6.27
71897;BMP280;59767;51.344;12.362;2023-02-03T04:22:00;160263.69;;;6.37
71897;BMP280;59767;51.344;12.362;2023-02-03T04:25:04;160268.88;;;6.39
71897;BMP280;59767;51.344;12.362;2023-02-03T04:28:09;160266.25;;;6.38
71897;BMP280;59767;51.344;12.362;2023-02-03T04:31:13;160287.16;;;6.46
71897;BMP280;59767;51.344;12.362;2023-02-03T04:34:17;160306.72;;;6.53
71897;BMP280;59767;51.344;12.362;2023-02-03T04:37:22;160317.19;;;6.57
71897;BMP280;59767;51.344;12.362;2023-02-03T04:40:26;160317.19;;;6.57
71897;BMP280;59767;51.344;12.362;2023-02-03T04:43:31;160325.03;;;6.60
71897;BMP280;59767;51.344;12.362;2023-02-03T04:46:35;160343.31;;;6.67
71897;BMP280;59767;51.344;12.362;2023-02-03T04:49:39;160349.84;;;6.70
71897;BMP280;59767;51.344;12.362;2023-02-03T04:52:43;160365.47;;;6.76
71897;BMP280;59767;51.344;12.362;2023-02-03T04:55:47;160366.78;;;6.76
71897;BMP280;59767;51.344;12.362;2023-02-03T04:58:52;160383.78;;;6.83
71897;BMP280;59767;51.344;12.362;2023-02-03T05:01:56;160411.19;;;6.93
71897;BMP280;59767;51.344;12.362;2023-02-03T05:05:00;160426.88;;;6.99
71897;BMP280;59767;51.344;12.362;2023-02-03T05:08:04;160426.88;;;6.99
71897;BMP280;59767;51.344;12.362;2023-02-03T05:11:09;160413.84;;;6.94
71897;BMP280;59767;51.344;12.362;2023-02-03T05:14:13;160420.38;;;6.97
71897;BMP280;59767;51.344;12.362;2023-02-03T05:17:17;160432.06;;;7.01
71897;BMP280;59767;51.344;12.362;2023-02-03T05:20:21;160434.72;;;7.02
71897;BMP280;59767;51.344;12.362;2023-02-03T05:23:25;160424.28;;;6.98
71897;BMP280;59767;51.344;12.362;2023-02-03T05:26:30;160429.47;;;7.00
71897;BMP280;59767;51.344;12.362;2023-02-03T05:29:34;160446.50;;;7.07
71897;BMP280;59767;51.344;12.362;2023-02-03T05:32:38;160450.41;;;7.08
71897;BMP280;59767;51.344;12.362;2023-02-03T05:35:42;160460.78;;;7.12
71897;BMP280;59767;51.344;12.362;2023-02-03T05:38:47;160466.03;;;7.14
71897;BMP280;59767;51.344;12.362;2023-02-03T05:41:51;160462.13;;;7.13
71897;BMP280;59767;51.344;12.362;2023-02-03T05:44:55;160473.88;;;7.17
71897;BMP280;59767;51.344;12.362;2023-02-03T05:47:59;160473.88;;;7.17
71897;BMP280;59767;51.344;12.362;2023-02-03T05:51:05;160481.72;;;7.20
71897;BMP280;59767;51.344;12.362;2023-02-03T05:54:09;160489.53;;;7.23
71897;BMP280;59767;51.344;12.362;2023-02-03T05:57:14;160510.47;;;7.31
71897;BMP280;59767;51.344;12.362;2023-02-03T06:00:19;160493.44;;;7.25
71897;BMP280;59767;51.344;12.362;2023-02-03T06:03:24;160492.19;;;7.24
71897;BMP280;59767;51.344;12.362;2023-02-03T06:06:28;160492.19;;;7.24
71897;BMP280;59767;51.344;12.362;2023-02-03T06:09:36;160497.38;;;7.26
71897;BMP280;59767;51.344;12.362;2023-02-03T06:12:41;160500.03;;;7.27
71897;BMP280;59767;51.344;12.362;2023-02-03T06:15:48;160511.78;;;7.32
71897;BMP280;59767;51.344;12.362;2023-02-03T06:18:53;160509.19;;;7.31
71897;BMP280;59767;51.344;12.362;2023-02-03T06:21:58;160527.44;;;7.38
71897;BMP280;59767;51.344;12.362;2023-02-03T06:25:03;160522.19;;;7.36
71897;BMP280;59767;51.344;12.362;2023-02-03T06:28:07;160519.63;;;7.35
71897;BMP280;59767;51.344;12.362;2023-02-03T06:31:11;160522.19;;;7.36
71897;BMP280;59767;51.344;12.362;2023-02-03T06:34:16;160530.09;;;7.39
71897;BMP280;59767;51.344;12.362;2023-02-03T06:37:20;160541.84;;;7.43
71897;BMP280;59767;51.344;12.362;2023-02-03T06:40:26;160541.84;;;7.43
71897;BMP280;59767;51.344;12.362;2023-02-03T06:43:31;160570.59;;;7.54
71897;BMP280;59767;51.344;12.362;2023-02-03T06:46:36;160583.63;;;7.59
71897;BMP280;59767;51.344;12.362;2023-02-03T06:49:40;160557.47;;;7.49
71897;BMP280;59767;51.344;12.362;2023-02-03T06:52:45;160588.81;;;7.61
71897;BMP280;59767;51.344;12.362;2023-02-03T06:55:51;160591.47;;;7.62
71897;BMP280;59767;51.344;12.362;2023-02-03T06:58:56;160577.09;;;7.57
71897;BMP280;59767;51.344;12.362;2023-02-03T07:02:01;160579.69;;;7.58
71897;BMP280;59767;51.344;12.362;2023-02-03T07:05:06;160577.09;;;7.57
71897;BMP280;59767;51.344;12.362;2023-02-03T07:08:10;160571.84;;;7.55
71897;BMP280;59767;51.344;12.362;2023-02-03T07:11:14;160598.00;;;7.65
71897;BMP280;59767;51.344;12.362;2023-02-03T07:14:18;160605.84;;;7.68
71897;BMP280;59767;51.344;12.362;2023-02-03T07:17:23;160607.16;;;7.68
71897;BMP280;59767;51.344;12.362;2023-02-03T07:20:27;160604.56;;;7.67
71897;BMP280;59767;51.344;12.362;2023-02-03T07:23:32;160621.47;;;7.74
71897;BMP280;59767;51.344;12.362;2023-02-03T07:26:37;160617.56;;;7.72
71897;BMP280;59767;51.344;12.362;2023-02-03T07:29:41;160618.88;;;7.73
71897;BMP280;59767;51.344;12.362;2023-02-03T07:32:50;160630.66;;;7.77
71897;BMP280;59767;51.344;12.362;2023-02-03T07:35:58;160641.09;;;7.81
71897;BMP280;59767;51.344;12.362;2023-02-03T07:39:02;160652.88;;;7.86
71897;BMP280;59767;51.344;12.362;2023-02-03T07:42:06;160646.28;;;7.83
71897;BMP280;59767;51.344;12.362;2023-02-03T07:45:12;160672.44;;;7.93
71897;BMP280;59767;51.344;12.362;2023-02-03T07:48:17;160669.84;;;7.92
71897;BMP280;59767;51.344;12.362;2023-02-03T07:51:21;160658.13;;;7.88
71897;BMP280;59767;51.344;12.362;2023-02-03T07:54:25;160663.31;;;7.90
71897;BMP280;59767;51.344;12.362;2023-02-03T07:57:30;160668.50;;;7.92
71897;BMP280;59767;51.344;12.362;2023-02-03T08:00:34;160692.00;;;8.01
71897;BMP280;59767;51.344;12.362;2023-02-03T08:03:39;160686.88;;;7.99
71897;BMP280;59767;51.344;12.362;2023-02-03T08:06:43;160693.34;;;8.01
71897;BMP280;59767;51.344;12.362;2023-02-03T08:09:47;160715.63;;;8.10
71897;BMP280;59767;51.344;12.362;2023-02-03T08:12:55;160701.19;;;8.04
71897;BMP280;59767;51.344;12.362;2023-02-03T08:15:59;160698.59;;;8.03
71897;BMP280;59767;51.344;12.362;2023-02-03T08:19:03;160699.91;;;8.04
71897;BMP280;59767;51.344;12.362;2023-02-03T08:22:08;160731.25;;;8.16
71897;BMP280;59767;51.344;12.362;2023-02-03T08:25:19;160714.28;;;8.09
71897;BMP280;59767;51.344;12.362;2023-02-03T08:28:25;160723.41;;;8.13
71897;BMP280;59767;51.344;12.362;2023-02-03T08:31:30;160732.59;;;8.16
71897;BMP280;59767;51.344;12.362;2023-02-03T08:34:35;160732.59;;;8.16
71897;BMP280;59767;51.344;12.362;2023-02-03T08:37:39;160722.09;;;8.12
71897;BMP280;59767;51.344;12.362;2023-02-03T08:40:43;160733.84;;;8.17
71897;BMP280;59767;51.344;12.362;2023-02-03T08:43:47;160735.19;;;8.17
71897;BMP280;59767;51.344;12.362;2023-02-03T08:46:52;160748.22;;;8.22
71897;BMP280;59767;51.344;12.362;2023-02-03T08:49:57;160767.84;;;8.30
71897;BMP280;59767;51.344;12.362;2023-02-03T08:53:01;160756.09;;;8.25
71897;BMP280;59767;51.344;12.362;2023-02-03T08:56:07;160758.69;;;8.26
71897;BMP280;59767;51.344;12.362;2023-02-03T08:59:12;160740.44;;;8.19
71897;BMP280;59767;51.344;12.362;2023-02-03T09:02:18;160757.41;;;8.26
71897;BMP280;59767;51.344;12.362;2023-02-03T09:05:22;160753.47;;;8.24
71897;BMP280;59767;51.344;12.362;2023-02-03T09:08:27;160770.50;;;8.31
71897;BMP280;59767;51.344;12.362;2023-02-03T09:11:31;160762.59;;;8.28
71897;BMP280;59767;51.344;12.362;2023-02-03T09:14:35;160778.31;;;8.34
71897;BMP280;59767;51.344;12.362;2023-02-03T09:17:39;160780.91;;;8.35
71897;BMP280;59767;51.344;12.362;2023-02-03T09:20:44;160792.69;;;8.39
71897;BMP280;59767;51.344;12.362;2023-02-03T09:23:48;160805.72;;;8.44
71897;BMP280;59767;51.344;12.362;2023-02-03T09:26:52;160831.91;;;8.54
71897;BMP280;59767;51.344;12.362;2023-02-03T09:29:58;160827.97;;;8.53
71897;BMP280;59767;51.344;12.362;2023-02-03T09:33:02;160831.91;;;8.54
71897;BMP280;59767;51.344;12.362;2023-02-03T09:36:07;160826.63;;;8.52
71897;BMP280;59767;51.344;12.362;2023-02-03T09:39:11;160834.50;;;8.55
71897;BMP280;59767;51.344;12.362;2023-02-03T09:45:35;160826.63;;;8.52
71897;BMP280;59767;51.344;12.362;2023-02-03T09:48:45;160809.66;;;8.46
71897;BMP280;59767;51.344;12.362;2023-02-03T09:52:13;160834.50;;;8.55
71897;BMP280;59767;51.344;12.362;2023-02-03T09:55:37;160831.91;;;8.54
71897;BMP280;59767;51.344;12.362;2023-02-03T09:58:42;160829.25;;;8.53
71897;BMP280;59767;51.344;12.362;2023-02-03T10:06:09;160827.97;;;8.53
71897;BMP280;59767;51.344;12.362;2023-02-03T10:15:50;160850.16;;;8.61
71897;BMP280;59767;51.344;12.362;2023-02-03T10:18:58;160816.19;;;8.48
71897;BMP280;59767;51.344;12.362;2023-02-03T10:22:11;160847.59;;;8.60
71897;BMP280;59767;51.344;12.362;2023-02-03T10:25:21;160834.50;;;8.55
71897;BMP280;59767;51.344;12.362;2023-02-03T10:28:38;160841.03;;;8.58
71897;BMP280;59767;51.344;12.362;2023-02-03T10:31:43;160845.00;;;8.59
71897;BMP280;59767;51.344;12.362;2023-02-03T10:34:49;160835.81;;;8.56
71897;BMP280;59767;51.344;12.362;2023-02-03T10:37:55;160817.50;;;8.49
71897;BMP280;59767;51.344;12.362;2023-02-03T10:41:01;160818.84;;;8.49
71897;BMP280;59767;51.344;12.362;2023-02-03T10:44:06;160813.59;;;8.47
71897;BMP280;59767;51.344;12.362;2023-02-03T10:47:26;160820.16;;;8.50
71897;BMP280;59767;51.344;12.362;2023-02-03T10:50:30;160818.84;;;8.49
71897;BMP280;59767;51.344;12.362;2023-02-03T10:53:36;160821.44;;;8.50
71897;BMP280;59767;51.344;12.362;2023-02-03T10:56:40;160824.09;;;8.51
71897;BMP280;59767;51.344;12.362;2023-02-03T10:59:46;160839.75;;;8.57
71897;BMP280;59767;51.344;12.362;2023-02-03T11:03:03;160842.34;;;8.58
71897;BMP280;59767;51.344;12.362;2023-02-03T11:06:14;160847.59;;;8.60
71897;BMP280;59767;51.344;12.362;2023-02-03T11:09:38;160845.00;;;8.59
71897;BMP280;59767;51.344;12.362;2023-02-03T11:12:41;160839.75;;;8.57
71897;BMP280;59767;51.344;12.362;2023-02-03T11:19:15;160843.66;;;8.59
71897;BMP280;59767;51.344;12.362;2023-02-03T11:22:34;160850.16;;;8.61
71897;BMP280;59767;51.344;12.362;2023-02-03T11:25:39;160839.75;;;8.57
71897;BMP280;59767;51.344;12.362;2023-02-03T11:28:45;160834.50;;;8.55
71897;BMP280;59767;51.344;12.362;2023-02-03T11:31:52;160850.16;;;8.61
71897;BMP280;59767;51.344;12.362;2023-02-03T11:35:21;160821.44;;;8.50
71897;BMP280;59767;51.344;12.362;2023-02-03T11:38:29;160831.91;;;8.54
71897;BMP280;59767;51.344;12.362;2023-02-03T11:41:38;160811.00;;;8.46
71897;BMP280;59767;51.344;12.362;2023-02-03T11:44:42;160831.91;;;8.54
71897;BMP280;59767;51.344;12.362;2023-02-03T11:47:50;160833.16;;;8.55
71897;BMP280;59767;51.344;12.362;2023-02-03T11:54:58;160847.59;;;8.60
71897;BMP280;59767;51.344;12.362;2023-02-03T11:58:38;160848.91;;;8.61
71897;BMP280;59767;51.344;12.362;2023-02-03T12:02:07;160851.47;;;8.62
71897;BMP280;59767;51.344;12.362;2023-02-03T12:05:32;160852.78;;;8.62
71897;BMP280;59767;51.344;12.362;2023-02-03T12:08:46;160860.66;;;8.65
71897;BMP280;59767;51.344;12.362;2023-02-03T12:15:40;160892.00;;;8.77
71897;BMP280;59767;51.344;12.362;2023-02-03T12:18:55;160915.56;;;8.87
71897;BMP280;59767;51.344;12.362;2023-02-03T12:22:10;160907.66;;;8.83
71897;BMP280;59767;51.344;12.362;2023-02-03T12:25:47;160895.94;;;8.79
71897;BMP280;59767;51.344;12.362;2023-02-03T12:29:06;160889.41;;;8.76
71897;BMP280;59767;51.344;12.362;2023-02-03T12:32:22;160878.91;;;8.72
71897;BMP280;59767;51.344;12.362;2023-02-03T12:35:37;160869.81;;;8.69
71897;BMP280;59767;51.344;12.362;2023-02-03T12:42:21;160882.81;;;8.74
71897;BMP280;59767;51.344;12.362;2023-02-03T12:45:30;160875.03;;;8.71
71897;BMP280;59767;51.344;12.362;2023-02-03T12:48:59;160902.47;;;8.81
71897;BMP280;59767;51.344;12.362;2023-02-03T12:52:17;160884.16;;;8.74
71897;BMP280;59767;51.344;12.362;2023-02-03T12:55:35;160892.00;;;8.77
71897;BMP280;59767;51.344;12.362;2023-02-03T12:58:45;160889.41;;;8.76
71897;BMP280;59767;51.344;12.362;2023-02-03T13:01:56;160911.59;;;8.85
71897;BMP280;59767;51.344;12.362;2023-02-03T13:05:17;160941.69;;;8.97
71897;BMP280;59767;51.344;12.362;2023-02-03T13:11:48;160978.25;;;9.11
71897;BMP280;59767;51.344;12.362;2023-02-03T13:18:22;160970.44;;;9.08
71897;BMP280;59767;51.344;12.362;2023-02-03T13:21:29;160963.91;;;9.05
71897;BMP280;59767;51.344;12.362;2023-02-03T13:24:34;160954.75;;;9.02
71897;BMP280;59767;51.344;12.362;2023-02-03T13:41:24;160941.69;;;8.97
71897;BMP280;59767;51.344;12.362;2023-02-03T13:44:31;160920.78;;;8.88
71897;BMP280;59767;51.344;12.362;2023-02-03T13:47:35;160916.84;;;8.87
71897;BMP280;59767;51.344;12.362;2023-02-03T13:50:39;160903.75;;;8.82
71897;BMP280;59767;51.344;12.362;2023-02-03T13:53:45;160878.91;;;8.72
71897;BMP280;59767;51.344;12.362;2023-02-03T13:56:57;160858.00;;;8.64
71897;BMP280;59767;51.344;12.362;2023-02-03T14:00:06;160859.31;;;8.65
71897;BMP280;59767;51.344;12.362;2023-02-03T14:09:45;160756.09;;;8.25
71897;BMP280;59767;51.344;12.362;2023-02-03T14:16:22;160654.19;;;7.86
71897;BMP280;59767;51.344;12.362;2023-02-03T14:22:31;160592.75;;;7.63
71897;BMP280;59767;51.344;12.362;2023-02-03T14:25:40;160588.81;;;7.61
71897;BMP280;59767;51.344;12.362;2023-02-03T14:28:46;160583.63;;;7.59
71897;BMP280;59767;51.344;12.362;2023-02-03T14:31:55;160594.06;;;7.63
71897;BMP280;59767;51.344;12.362;2023-02-03T14:34:59;160604.56;;;7.67
71897;BMP280;59767;51.344;12.362;2023-02-03T14:38:08;160612.34;;;7.70
71897;BMP280;59767;51.344;12.362;2023-02-03T14:41:18;160638.44;;;7.80
71897;BMP280;59767;51.344;12.362;2023-02-03T14:57:50;160582.28;;;7.59
71897;BMP280;59767;51.344;12.362;2023-02-03T15:00:55;160575.81;;;7.56
71897;BMP280;59767;51.344;12.362;2023-02-03T15:04:20;160590.16;;;7.62
71897;BMP280;59767;51.344;12.362;2023-02-03T15:07:41;160571.84;;;7.55
71897;BMP280;59767;51.344;12.362;2023-02-03T15:10:49;160594.06;;;7.63
71897;BMP280;59767;51.344;12.362;2023-02-03T15:13:55;160594.06;;;7.63
71897;BMP280;59767;51.344;12.362;2023-02-03T15:17:02;160629.38;;;7.77
71897;BMP280;59767;51.344;12.362;2023-02-03T15:20:36;160648.94;;;7.84
71897;BMP280;59767;51.344;12.362;2023-02-03T15:23:47;160686.88;;;7.99
71897;BMP280;59767;51.344;12.362;2023-02-03T15:26:54;160718.16;;;8.11
71897;BMP280;59767;51.344;12.362;2023-02-03T15:30:13;160727.34;;;8.14
71897;BMP280;59767;51.344;12.362;2023-02-03T15:33:18;160750.84;;;8.23
71897;BMP280;59767;51.344;12.362;2023-02-03T15:36:36;160758.69;;;8.26
71897;BMP280;59767;51.344;12.362;2023-02-03T15:40:13;160776.97;;;8.33
71897;BMP280;59767;51.344;12.362;2023-02-03T15:43:21;160782.22;;;8.35
71897;BMP280;59767;51.344;12.362;2023-02-03T15:49:38;160795.34;;;8.40
71897;BMP280;59767;51.344;12.362;2023-02-03T15:52:45;160786.16;;;8.37
71897;BMP280;59767;51.344;12.362;2023-02-03T15:55:53;160779.56;;;8.34
71897;BMP280;59767;51.344;12.362;2023-02-03T15:59:00;160775.66;;;8.33
71897;BMP280;59767;51.344;12.362;2023-02-03T16:02:20;160801.81;;;8.43
71897;BMP280;59767;51.344;12.362;2023-02-03T16:05:30;160807.06;;;8.45
71897;BMP280;59767;51.344;12.362;2023-02-03T16:08:43;160792.69;;;8.39
71897;BMP280;59767;51.344;12.362;2023-02-03T16:11:49;160803.13;;;8.43
71897;BMP280;59767;51.344;12.362;2023-02-03T16:14:54;160794.00;;;8.40
71897;BMP280;59767;51.344;12.362;2023-02-03T16:17:59;160778.31;;;8.34
71897;BMP280;59767;51.344;12.362;2023-02-03T16:21:04;160760.00;;;8.27
71897;BMP280;59767;51.344;12.362;2023-02-03T16:27:39;160756.09;;;8.25
71897;BMP280;59767;51.344;12.362;2023-02-03T16:30:59;160744.34;;;8.21
71897;BMP280;59767;51.344;12.362;2023-02-03T16:34:23;160723.41;;;8.13
71897;BMP280;59767;51.344;12.362;2023-02-03T16:37:45;160722.09;;;8.12
71897;BMP280;59767;51.344;12.362;2023-02-03T16:41:15;160724.72;;;8.13
71897;BMP280;59767;51.344;12.362;2023-02-03T16:44:39;160726.00;;;8.14
71897;BMP280;59767;51.344;12.362;2023-02-03T16:48:02;160729.94;;;8.15
71897;BMP280;59767;51.344;12.362;2023-02-03T16:51:39;160732.59;;;8.16
71897;BMP280;59767;51.344;12.362;2023-02-03T16:54:43;160732.59;;;8.16
71897;BMP280;59767;51.344;12.362;2023-02-03T16:57:47;160707.75;;;8.07
71897;BMP280;59767;51.344;12.362;2023-02-03T17:00:53;160702.50;;;8.05
71897;BMP280;59767;51.344;12.362;2023-02-03T17:03:58;160712.97;;;8.09
71897;BMP280;59767;51.344;12.362;2023-02-03T17:07:02;160703.84;;;8.05
71897;BMP280;59767;51.344;12.362;2023-02-03T17:10:08;160711.69;;;8.08
71897;BMP280;59767;51.344;12.362;2023-02-03T17:13:13;160739.09;;;8.19
71897;BMP280;59767;51.344;12.362;2023-02-03T17:16:20;160716.88;;;8.10
71897;BMP280;59767;51.344;12.362;2023-02-03T17:19:26;160714.28;;;8.09
71897;BMP280;59767;51.344;12.362;2023-02-03T17:22:30;160729.94;;;8.15
71897;BMP280;59767;51.344;12.362;2023-02-03T17:25:38;160727.34;;;8.14
71897;BMP280;59767;51.344;12.362;2023-02-03T17:28:42;160716.88;;;8.10
71897;BMP280;59767;51.344;12.362;2023-02-03T17:31:47;160716.88;;;8.10
71897;BMP280;59767;51.344;12.362;2023-02-03T17:34:51;160723.41;;;8.13
71897;BMP280;59767;51.344;12.362;2023-02-03T17:37:55;160705.09;;;8.06
71897;BMP280;59767;51.344;12.362;2023-02-03T17:41:06;160695.94;;;8.02
71897;BMP280;59767;51.344;12.362;2023-02-03T17:44:29;160693.34;;;8.01
71897;BMP280;59767;51.344;12.362;2023-02-03T17:47:51;160688.13;;;7.99
71897;BMP280;59767;51.344;12.362;2023-02-03T17:51:15;160663.31;;;7.90
71897;BMP280;59767;51.344;12.362;2023-02-03T17:54:40;160669.84;;;7.92
71897;BMP280;59767;51.344;12.362;2023-02-03T17:57:45;160651.53;;;7.85
71897;BMP280;59767;51.344;12.362;2023-02-03T18:00:49;160645.03;;;7.83
71897;BMP280;59767;51.344;12.362;2023-02-03T18:03:55;160646.28;;;7.83
71897;BMP280;59767;51.344;12.362;2023-02-03T18:06:59;160629.38;;;7.77
71897;BMP280;59767;51.344;12.362;2023-02-03T18:10:04;160641.09;;;7.81
71897;BMP280;59767;51.344;12.362;2023-02-03T18:13:08;160638.44;;;7.80
71897;BMP280;59767;51.344;12.362;2023-02-03T18:16:18;160645.03;;;7.83
71897;BMP280;59767;51.344;12.362;2023-02-03T18:19:26;160629.38;;;7.77
71897;BMP280;59767;51.344;12.362;2023-02-03T18:22:30;160639.78;;;7.81
71897;BMP280;59767;51.344;12.362;2023-02-03T18:25:35;160642.38;;;7.82
71897;BMP280;59767;51.344;12.362;2023-02-03T18:28:39;160625.47;;;7.75
71897;BMP280;59767;51.344;12.362;2023-02-03T18:31:44;160641.09;;;7.81
71897;BMP280;59767;51.344;12.362;2023-02-03T18:34:48;160609.72;;;7.69
71897;BMP280;59767;51.344;12.362;2023-02-03T18:37:52;160620.22;;;7.73
71897;BMP280;59767;51.344;12.362;2023-02-03T18:41:02;160595.41;;;7.64
71897;BMP280;59767;51.344;12.362;2023-02-03T18:44:07;160595.41;;;7.64
71897;BMP280;59767;51.344;12.362;2023-02-03T18:47:11;160608.44;;;7.69
71897;BMP280;59767;51.344;12.362;2023-02-03T18:50:16;160604.56;;;7.67
71897;BMP280;59767;51.344;12.362;2023-02-03T18:53:20;160612.34;;;7.70
71897;BMP280;59767;51.344;12.362;2023-02-03T18:56:26;160600.63;;;7.66
71897;BMP280;59767;51.344;12.362;2023-02-03T18:59:30;160594.06;;;7.63
71897;BMP280;59767;51.344;12.362;2023-02-03T19:02:34;160607.16;;;7.68
71897;BMP280;59767;51.344;12.362;2023-02-03T19:05:39;160599.31;;;7.65
71897;BMP280;59767;51.344;12.362;2023-02-03T19:08:44;160591.47;;;7.62
71897;BMP280;59767;51.344;12.362;2023-02-03T19:11:48;160611.03;;;7.70
71897;BMP280;59767;51.344;12.362;2023-02-03T19:14:53;160612.34;;;7.70
71897;BMP280;59767;51.344;12.362;2023-02-03T19:17:57;160595.41;;;7.64
71897;BMP280;59767;51.344;12.362;2023-02-03T19:21:01;160592.75;;;7.63
71897;BMP280;59767;51.344;12.362;2023-02-03T19:24:05;160577.09;;;7.57